Time;durP1;ratioP1;P1;durP2;ratioP2;P2;SDS_P1;SDS_P2;PMS_P1;PMS_P2;Temp;Humidity;BMP_temperature;BMP_pressure;BME280_temperature;BME280_humidity;BME280_pressure;Samples;Min_cycle;Max_cycle;Signal;HPM_P1;HPM_P2
2022/08/30 00:01:08;;;;;;;10.18;6.37;;;;;;;18.18;77.25;100868.93;1815509;78;25767;-77
2022/08/30 00:03:44;;;;;;;10.80;7.08;;;;;;;18.16;77.27;100869.69;1800111;79;25790;-77
2022/08/30 00:06:14;;;;;;;11.18;6.20;;;;;;;18.14;77.32;100870.45;1803070;78;26540;-77
2022/08/30 00:08:42;;;;;;;10.60;6.40;;;;;;;18.14;77.34;100874.52;1827527;77;28275;-77
2022/08/30 00:11:13;;;;;;;10.95;6.90;;;;;;;18.13;77.39;100872.05;1805013;78;25939;-77
2022/08/30 00:13:43;;;;;;;6.70;5.72;;;;;;;18.11;77.43;100875.52;1833080;77;25796;-78
2022/08/30 00:16:11;;;;;;;8.05;6.20;;;;;;;18.11;77.44;100875.52;1825425;77;25743;-77
2022/08/30 00:18:38;;;;;;;9.28;6.80;;;;;;;18.10;77.54;100879.27;1800690;77;26454;-77
2022/08/30 00:21:06;;;;;;;9.28;6.47;;;;;;;18.07;77.53;100882.45;1840574;77;27427;-77
2022/08/30 00:23:32;;;;;;;10.50;6.53;;;;;;;18.08;77.56;100878.67;1841605;77;26362;-77
2022/08/30 00:26:00;;;;;;;10.93;6.85;;;;;;;18.07;77.67;100874.32;1842408;77;25531;-77
2022/08/30 00:28:27;;;;;;;11.57;6.95;;;;;;;18.07;77.61;100879.19;1830414;77;26256;-77
2022/08/30 00:30:53;;;;;;;12.05;6.75;;;;;;;18.05;77.69;100879.95;1805019;78;26297;-77
2022/08/30 00:33:21;;;;;;;11.08;6.75;;;;;;;18.03;77.79;100879.35;1839032;77;27461;-77
2022/08/30 00:35:48;;;;;;;8.80;6.55;;;;;;;18.03;77.82;100881.23;1832485;77;25741;-76
2022/08/30 00:38:14;;;;;;;8.78;6.35;;;;;;;18.00;77.92;100885.25;1830898;77;25758;-77
2022/08/30 00:40:44;;;;;;;9.73;6.33;;;;;;;18.01;77.78;100883.34;1830786;77;25754;-77
2022/08/30 00:43:24;;;;;;;7.87;6.20;;;;;;;18.00;77.88;100874.92;1842200;76;25908;-77
2022/08/30 00:45:51;;;;;;;7.37;5.90;;;;;;;17.98;78.04;100875.16;1801065;78;27547;-77
2022/08/30 00:48:18;;;;;;;9.68;6.28;;;;;;;17.98;78.12;100878.39;1832742;77;25716;-77
2022/08/30 00:50:55;;;;;;;9.48;6.62;;;;;;;17.93;78.09;100872.81;1811099;78;25595;-77
2022/08/30 00:53:29;;;;;;;8.23;6.15;;;;;;;17.91;77.97;100872.22;1806107;78;25843;-77
2022/08/30 00:55:58;;;;;;;9.60;6.60;;;;;;;17.89;78.02;100871.10;1816099;78;26344;-77
2022/08/30 00:58:30;;;;;;;7.28;6.58;;;;;;;17.87;78.19;100870.50;1810490;78;27427;-77
2022/08/30 01:00:59;;;;;;;7.15;6.10;;;;;;;17.86;78.31;100867.48;1811944;78;26134;-77
2022/08/30 01:03:27;;;;;;;9.25;6.50;;;;;;;17.84;78.11;100873.66;1800642;78;25780;-77
2022/08/30 01:05:55;;;;;;;8.08;6.47;;;;;;;17.84;78.24;100880.95;1825229;78;25469;-77
2022/08/30 01:08:22;;;;;;;10.13;7.35;;;;;;;17.82;78.18;100874.94;1783345;78;26546;-77
2022/08/30 01:10:50;;;;;;;9.20;6.53;;;;;;;17.80;78.29;100874.33;1813894;78;27453;-77
2022/08/30 01:13:18;;;;;;;10.93;6.50;;;;;;;17.79;78.27;100876.23;1801105;78;25884;-76
2022/08/30 01:15:45;;;;;;;11.15;6.47;;;;;;;17.75;78.28;100868.23;1815367;78;25747;-77
2022/08/30 01:18:13;;;;;;;10.38;7.03;;;;;;;17.73;78.42;100870.34;1823432;78;26305;-76
2022/08/30 01:21:00;;;;;;;10.32;6.58;;;;;;;17.69;78.55;100874.05;1809972;78;25301;-77
2022/08/30 01:23:28;;;;;;;13.78;8.13;;;;;;;17.67;78.70;100872.09;1803469;78;28312;-77
2022/08/30 01:25:55;;;;;;;11.43;8.83;;;;;;;17.66;78.81;100873.69;1801885;78;25998;-77
2022/08/30 01:28:25;;;;;;;11.15;7.60;;;;;;;17.64;78.94;100877.95;1803572;78;26348;-77
2022/08/30 01:30:52;;;;;;;8.63;6.70;;;;;;;17.63;78.87;100880.89;1827269;77;26278;-77
2022/08/30 01:33:19;;;;;;;10.10;6.87;;;;;;;17.60;79.00;100878.11;1826637;77;26484;-77
2022/08/30 01:35:52;;;;;;;10.20;7.37;;;;;;;17.58;79.10;100880.22;1806478;77;27443;-77
2022/08/30 01:38:25;;;;;;;11.43;9.55;;;;;;;17.58;79.27;100875.31;1801931;77;25740;-77
2022/08/30 01:40:59;;;;;;;13.20;11.78;;;;;;;17.55;79.41;100873.08;1815760;77;25802;-77
2022/08/30 01:43:26;;;;;;;27.32;25.00;;;;;;;17.51;79.67;100878.09;1794880;77;25946;-77
2022/08/30 01:45:52;;;;;;;22.42;20.05;;;;;;;17.46;79.85;100880.64;1807496;77;26431;-77
2022/08/30 01:48:20;;;;;;;22.58;14.80;;;;;;;17.46;80.16;100881.16;1811046;78;27451;-77
2022/08/30 01:50:47;;;;;;;14.05;11.57;;;;;;;17.45;80.29;100883.03;1807267;78;25655;-77
2022/08/30 01:53:13;;;;;;;32.45;29.72;;;;;;;17.44;80.34;100885.45;1803165;78;25825;-77
2022/08/30 01:55:41;;;;;;;38.73;35.28;;;;;;;17.41;80.61;100883.18;1801844;78;25896;-77
2022/08/30 01:58:08;;;;;;;15.10;13.10;;;;;;;17.41;80.75;100883.18;1817710;78;26330;-77
2022/08/30 02:00:34;;;;;;;11.33;8.80;;;;;;;17.43;80.80;100884.30;1808668;78;27435;-77
2022/08/30 02:03:00;;;;;;;11.18;8.28;;;;;;;17.44;80.96;100875.14;1801128;78;25791;-77
2022/08/30 02:05:26;;;;;;;8.60;7.25;;;;;;;17.44;81.10;100881.91;1806895;78;25734;-77
2022/08/30 02:07:53;;;;;;;10.48;7.47;;;;;;;17.41;81.43;100876.41;1796788;78;25698;-77
2022/08/30 02:10:20;;;;;;;11.40;8.03;;;;;;;17.41;81.51;100880.99;1797575;78;26096;-77
2022/08/30 02:12:46;;;;;;;13.68;8.25;;;;;;;17.42;81.65;100876.73;1805927;78;26937;-77
2022/08/30 02:15:13;;;;;;;13.25;7.50;;;;;;;17.41;81.64;100878.28;1800441;78;25821;-77
2022/08/30 02:17:41;;;;;;;7.78;6.90;;;;;;;17.41;81.79;100881.83;1796238;78;25757;-77
2022/08/30 02:20:09;;;;;;;7.92;6.92;;;;;;;17.39;81.90;100878.52;1806027;78;25742;-76
2022/08/30 02:22:36;;;;;;;9.15;7.70;;;;;;;17.39;82.00;100876.33;1814031;77;25709;-77
2022/08/30 02:25:06;;;;;;;9.78;7.62;;;;;;;17.38;82.25;100880.94;1807477;77;27458;-77
2022/08/30 02:27:34;;;;;;;8.88;7.58;;;;;;;17.37;82.27;100877.91;1827061;77;25808;-77
2022/08/30 02:30:03;;;;;;;10.88;7.75;;;;;;;17.34;82.42;100882.41;1798819;78;25851;-77
2022/08/30 02:32:29;;;;;;;10.48;7.17;;;;;;;17.33;82.62;100882.64;1797710;78;25911;-77
2022/08/30 02:34:55;;;;;;;11.68;7.97;;;;;;;17.31;82.80;100882.88;1796349;78;25871;-77
2022/08/30 02:37:22;;;;;;;11.50;8.85;;;;;;;17.29;82.95;100886.85;1796102;78;27486;-77
2022/08/30 02:39:48;;;;;;;11.97;7.62;;;;;;;17.24;83.00;100890.23;1812039;78;25930;-77
2022/08/30 02:42:15;;;;;;;11.38;8.30;;;;;;;17.21;83.27;100885.80;1824080;77;26065;-76
2022/08/30 02:44:41;;;;;;;9.90;7.62;;;;;;;17.20;83.31;100887.66;1834129;77;26225;-77
2022/08/30 02:47:07;;;;;;;10.23;8.10;;;;;;;17.21;83.36;100889.86;1817045;78;25733;-77
2022/08/30 02:49:34;;;;;;;12.90;8.03;;;;;;;17.23;83.55;100890.45;1797950;78;28029;-77
2022/08/30 02:52:04;;;;;;;10.85;8.50;;;;;;;17.23;83.80;100888.59;1808381;78;26483;-77
2022/08/30 02:54:32;;;;;;;11.30;8.13;;;;;;;17.21;83.89;100890.69;1798473;78;25616;-77
2022/08/30 02:57:03;;;;;;;10.32;7.87;;;;;;;17.19;83.89;100888.73;1798008;78;25768;-77
2022/08/30 02:59:28;;;;;;;9.50;8.03;;;;;;;17.20;83.89;100893.08;1810465;78;25830;-77
2022/08/30 03:01:54;;;;;;;12.03;8.43;;;;;;;17.17;83.87;100890.00;1810665;78;27420;-77
2022/08/30 03:04:22;;;;;;;10.53;7.75;;;;;;;17.18;83.87;100884.87;1809599;78;26351;-77
2022/08/30 03:06:48;;;;;;;11.57;7.78;;;;;;;17.19;83.92;100886.55;1808263;78;25863;-77
2022/08/30 03:09:15;;;;;;;10.48;7.62;;;;;;;17.18;83.93;100886.22;1795291;79;25788;-77
2022/08/30 03:11:41;;;;;;;9.15;7.78;;;;;;;17.18;84.04;100881.65;1808986;78;25776;-77
2022/08/30 03:14:07;;;;;;;12.40;8.33;;;;;;;17.19;84.01;100887.38;1763622;79;28232;-77
2022/08/30 03:16:34;;;;;;;10.60;8.55;;;;;;;17.20;84.04;100888.19;1807842;78;25770;-77
2022/08/30 03:19:00;;;;;;;9.83;7.80;;;;;;;17.19;84.09;100894.67;1794888;78;25724;-77
2022/08/30 03:21:26;;;;;;;12.40;8.55;;;;;;;17.15;84.09;100893.45;1818147;78;26255;-76
2022/08/30 03:23:53;;;;;;;13.53;8.08;;;;;;;17.13;84.21;100892.85;1811554;78;25538;-77
2022/08/30 03:26:19;;;;;;;12.53;8.53;;;;;;;17.11;84.21;100897.66;1799084;78;27439;-77
2022/08/30 03:28:45;;;;;;;10.18;8.43;;;;;;;17.09;84.27;100905.98;1808288;78;26072;-77
2022/08/30 03:31:12;;;;;;;12.75;9.10;;;;;;;17.10;84.24;100913.06;1800237;78;25850;-77
2022/08/30 03:33:40;;;;;;;11.48;8.00;;;;;;;17.09;84.18;100915.45;1793167;78;25731;-77
2022/08/30 03:36:08;;;;;;;9.20;7.87;;;;;;;17.09;84.22;100913.27;1800890;78;26511;-77
2022/08/30 03:38:35;;;;;;;11.33;8.73;;;;;;;17.08;84.23;100912.98;1809812;78;27430;-77
2022/08/30 03:41:03;;;;;;;11.10;8.58;;;;;;;17.07;84.33;100917.56;1803402;78;26417;-77
2022/08/30 03:43:29;;;;;;;11.30;8.05;;;;;;;17.04;84.41;100915.31;1803886;78;25782;-76
2022/08/30 03:45:55;;;;;;;11.65;9.08;;;;;;;17.03;84.50;100911.45;1810286;78;26430;-78
2022/08/30 03:48:22;;;;;;;15.03;8.68;;;;;;;16.99;84.66;100908.37;1812953;77;26329;-76
2022/08/30 03:50:48;;;;;;;11.97;8.48;;;;;;;16.98;84.71;100906.70;1806899;78;27945;-77
2022/08/30 03:53:14;;;;;;;14.70;9.00;;;;;;;17.00;84.76;100910.01;1802273;78;25871;-78
2022/08/30 03:55:41;;;;;;;10.13;8.55;;;;;;;17.02;84.69;100914.70;1807248;78;25696;-76
2022/08/30 03:58:07;;;;;;;10.75;7.95;;;;;;;17.04;84.67;100915.31;1816825;78;26470;-77
2022/08/30 04:00:33;;;;;;;11.83;8.45;;;;;;;17.05;84.65;100906.64;1805993;78;25869;-77
2022/08/30 04:02:59;;;;;;;16.70;8.55;;;;;;;17.04;84.68;100907.70;1813579;78;27583;-77
2022/08/30 04:05:26;;;;;;;12.35;8.45;;;;;;;17.04;84.66;100912.60;1804358;77;25815;-77
2022/08/30 04:07:53;;;;;;;11.20;9.00;;;;;;;17.05;84.71;100910.19;1828995;77;25753;-77
2022/08/30 04:10:20;;;;;;;9.95;8.55;;;;;;;17.05;84.61;100910.19;1761273;79;26195;-77
2022/08/30 04:12:50;;;;;;;13.45;9.23;;;;;;;17.06;84.58;100905.61;1808004;78;25772;-77
2022/08/30 04:15:19;;;;;;;11.43;8.20;;;;;;;17.04;84.55;100908.55;1803098;78;27421;-77
2022/08/30 04:17:46;;;;;;;12.55;8.25;;;;;;;17.01;84.59;100908.14;1803657;78;25694;-77
2022/08/30 04:20:14;;;;;;;12.50;8.70;;;;;;;17.01;84.68;100908.14;1803128;78;25902;-77
2022/08/30 04:22:41;;;;;;;9.20;8.20;;;;;;;17.01;84.86;100906.27;1801578;78;26046;-77
2022/08/30 04:25:09;;;;;;;12.28;8.85;;;;;;;17.01;84.94;100910.84;1797726;78;25889;-77
2022/08/30 04:27:35;;;;;;;12.13;10.82;;;;;;;17.03;85.11;100912.80;1805601;78;28253;-77
2022/08/30 04:30:02;;;;;;;12.80;9.33;;;;;;;17.01;85.09;100912.20;1814710;78;25771;-76
2022/08/30 04:32:28;;;;;;;10.25;8.85;;;;;;;17.00;85.25;100916.77;1841361;77;25952;-76
2022/08/30 04:34:58;;;;;;;10.58;8.48;;;;;;;17.01;85.38;100921.16;1785446;79;25739;-76
2022/08/30 04:37:26;;;;;;;11.73;8.68;;;;;;;17.03;85.50;100923.62;1811472;78;26560;-76
2022/08/30 04:40:02;;;;;;;12.25;8.43;;;;;;;17.03;85.51;100924.98;1812712;77;27465;-77
2022/08/30 04:42:32;;;;;;;9.80;7.25;;;;;;;17.04;85.58;100926.66;1812448;77;25891;-77
2022/08/30 04:45:02;;;;;;;11.40;8.50;;;;;;;17.05;85.62;100922.88;1806422;78;26473;-77
2022/08/30 04:47:28;;;;;;;10.15;7.92;;;;;;;17.03;85.76;100918.22;1830664;77;26297;-77
2022/08/30 04:49:55;;;;;;;10.80;8.08;;;;;;;17.06;85.84;100923.20;1822831;78;25719;-77
2022/08/30 04:52:21;;;;;;;9.48;7.55;;;;;;;17.04;85.92;100930.71;1822158;77;28184;-76
2022/08/30 04:54:54;;;;;;;8.80;6.55;;;;;;;17.04;86.10;100931.55;1814981;78;25974;-77
2022/08/30 04:57:22;;;;;;;8.35;6.97;;;;;;;17.03;86.24;100932.58;1841737;77;25777;-77
2022/08/30 04:59:49;;;;;;;14.53;7.78;;;;;;;17.02;86.40;100931.46;1822570;78;26247;-77
2022/08/30 05:02:15;;;;;;;8.58;5.95;;;;;;;16.96;86.56;100938.56;1835782;76;25867;-77
2022/08/30 05:05:38;;;;;;;8.25;6.20;;;;;;;16.94;86.79;100935.25;1809892;77;27134;-77
2022/08/30 05:07:10;;;;;;;8.70;6.35;;;;;;;16.98;87.01;100941.36;1827746;77;26408;-77
2022/08/30 05:09:36;;;;;;;8.43;6.50;;;;;;;17.03;87.17;100938.00;1830988;77;25741;-77
2022/08/30 05:12:03;;;;;;;6.55;5.85;;;;;;;17.05;87.37;100948.08;1805921;78;26204;-77
2022/08/30 05:14:29;;;;;;;7.50;6.37;;;;;;;17.09;87.48;100949.80;1821281;77;25767;-77
2022/08/30 05:16:55;;;;;;;8.25;5.83;;;;;;;17.10;87.59;100953.67;1822653;78;28246;-77
2022/08/30 05:19:22;;;;;;;8.78;6.03;;;;;;;17.13;87.77;100949.15;1838109;76;26290;-77
2022/08/30 05:21:48;;;;;;;7.70;5.15;;;;;;;17.18;87.93;100956.09;1832735;77;25906;-77
2022/08/30 05:24:15;;;;;;;8.65;5.20;;;;;;;17.21;88.05;100957.53;1817788;78;25710;-77
2022/08/30 05:26:41;;;;;;;8.48;4.53;;;;;;;17.24;88.19;100952.50;1797461;78;26183;-77
2022/08/30 05:29:07;;;;;;;7.55;5.58;;;;;;;17.29;88.21;100949.13;1797781;78;28245;-77
2022/08/30 05:31:35;;;;;;;6.00;5.05;;;;;;;17.36;88.33;100951.27;1795334;78;25967;-77
2022/08/30 05:34:02;;;;;;;6.03;4.42;;;;;;;17.42;88.42;100951.72;1794713;78;25670;-77
2022/08/30 05:36:33;;;;;;;5.92;4.45;;;;;;;17.49;88.42;100952.50;1799162;78;26390;-78
2022/08/30 05:38:59;;;;;;;;;;;;;;;17.51;88.37;100956.64;1807310;77;25777;-77
2022/08/30 05:41:26;;;;;;;8.20;4.22;;;;;;;17.59;88.75;100962.31;1800190;78;27435;-77
2022/08/30 05:43:56;;;;;;;6.03;4.00;;;;;;;17.64;88.70;100959.77;1836505;77;26033;-77
2022/08/30 05:46:24;;;;;;;6.60;3.70;;;;;;;17.71;88.68;100966.77;1823547;77;26356;-77
2022/08/30 05:48:51;;;;;;;4.03;3.22;;;;;;;17.78;88.75;100961.80;1826304;77;26475;-77
2022/08/30 05:51:21;;;;;;;6.25;3.15;;;;;;;17.80;88.43;100963.23;1841197;77;25749;-77
2022/08/30 05:53:50;;;;;;;6.33;3.55;;;;;;;17.78;88.47;100959.92;1831850;77;27615;-77
2022/08/30 05:56:22;;;;;;;6.35;3.45;;;;;;;17.79;88.58;100960.76;1813067;78;25560;-77
2022/08/30 05:58:48;;;;;;;6.65;3.27;;;;;;;17.80;88.86;100951.05;1813916;77;25783;-77
2022/08/30 06:01:27;;;;;;;5.45;3.10;;;;;;;17.82;88.92;100950.80;1830801;77;25621;-77
2022/08/30 06:03:57;;;;;;;5.92;2.90;;;;;;;17.84;88.82;100948.18;1804079;78;25694;-77
2022/08/30 06:06:23;;;;;;;4.28;2.92;;;;;;;17.84;88.45;100953.59;1796191;78;28246;-77
2022/08/30 06:08:50;;;;;;;4.72;2.80;;;;;;;17.84;88.68;100959.54;1801182;78;26534;-77
2022/08/30 06:11:19;;;;;;;4.92;2.30;;;;;;;17.86;88.51;100957.43;1793779;78;25764;-76
2022/08/30 06:13:47;;;;;;;4.80;2.27;;;;;;;17.85;88.66;100958.50;1804856;78;25741;-78
2022/08/30 06:16:17;;;;;;;8.25;2.92;;;;;;;17.89;88.92;100962.41;1803818;78;25820;-77
2022/08/30 06:18:45;;;;;;;5.17;3.13;;;;;;;17.89;88.71;100970.02;1800388;78;28471;-77
2022/08/30 06:21:24;;;;;;;5.95;2.40;;;;;;;17.91;88.61;100972.50;1799548;78;25704;-77
2022/08/30 06:23:52;;;;;;;3.67;2.72;;;;;;;17.94;88.64;100968.00;1795479;78;26409;-77
2022/08/30 06:26:19;;;;;;;3.40;2.37;;;;;;;17.97;88.59;100977.84;1806340;78;26249;-77
2022/08/30 06:28:46;;;;;;;5.10;2.70;;;;;;;18.02;88.68;100978.02;1798181;78;25862;-77
2022/08/30 06:31:15;;;;;;;5.87;2.22;;;;;;;18.04;88.57;100975.06;1792249;78;27617;-77
2022/08/30 06:33:42;;;;;;;3.85;2.92;;;;;;;18.06;88.14;100972.95;1769439;79;26108;-77
2022/08/30 06:36:17;;;;;;;5.58;2.10;;;;;;;18.06;88.32;100973.79;1790663;78;26438;-77
2022/08/30 06:38:45;;;;;;;9.48;2.47;;;;;;;18.13;88.30;100973.71;1801681;78;26223;-77
2022/08/30 06:41:17;;;;;;;3.55;2.27;;;;;;;18.20;87.94;100973.92;1804826;78;25921;-77
2022/08/30 06:43:45;;;;;;;2.02;1.77;;;;;;;18.20;87.86;100977.98;1805534;78;27452;-77
2022/08/30 06:46:17;;;;;;;2.15;1.92;;;;;;;18.21;87.89;100986.95;1803957;78;25874;-77
2022/08/30 06:48:44;;;;;;;3.22;2.20;;;;;;;18.26;88.05;100983.05;1791300;78;26097;-77
2022/08/30 06:51:10;;;;;;;2.72;2.15;;;;;;;18.32;88.25;100980.77;1807298;77;25926;-77
2022/08/30 06:53:37;;;;;;;3.80;2.30;;;;;;;18.32;87.64;100984.33;1815627;77;26367;-77
2022/08/30 06:56:09;;;;;;;2.87;2.22;;;;;;;18.34;87.44;100991.70;1814788;78;28284;-77
2022/08/30 06:58:38;;;;;;;6.55;2.17;;;;;;;18.38;87.54;100992.06;1783829;78;25751;-77
2022/08/30 07:01:14;;;;;;;3.98;2.17;;;;;;;18.41;87.31;100991.62;1798483;78;25830;-76
2022/08/30 07:03:41;;;;;;;4.78;2.20;;;;;;;18.41;86.83;100999.20;1832450;77;26429;-77
2022/08/30 07:06:08;;;;;;;4.03;2.20;;;;;;;18.42;87.14;100998.16;1801224;78;25979;-77
2022/08/30 07:08:35;;;;;;;4.45;2.05;;;;;;;18.45;87.29;101001.79;1820439;78;27444;-77
2022/08/30 07:11:02;;;;;;;4.45;2.47;;;;;;;18.48;86.98;100999.16;1803868;78;26529;-77
2022/08/30 07:13:29;;;;;;;3.52;1.92;;;;;;;18.49;87.24;101006.25;1802638;78;25794;-77
2022/08/30 07:15:55;;;;;;;4.62;2.30;;;;;;;18.52;86.87;101007.69;1808253;78;25714;-77
2022/08/30 07:21:11;;;;;;;3.55;2.55;;;;;;;18.53;86.66;101010.68;1816421;78;27453;-77
2022/08/30 07:23:38;;;;;;;3.47;2.33;;;;;;;18.60;86.93;101008.72;1816164;78;25682;-77
2022/08/30 07:26:09;;;;;;;2.55;1.95;;;;;;;18.61;86.41;101007.13;1814826;78;26045;-77
2022/08/30 07:28:41;;;;;;;4.22;2.00;;;;;;;18.72;86.64;101014.49;1813830;78;26228;-77
2022/08/30 07:31:09;;;;;;;2.30;2.05;;;;;;;18.89;87.49;101021.45;1806184;78;25816;-78
2022/08/30 07:33:35;;;;;;;4.47;2.05;;;;;;;19.03;86.85;101018.86;1809090;78;27510;-78
2022/08/30 07:36:03;;;;;;;5.42;2.17;;;;;;;19.11;86.60;101028.02;1808191;78;26009;-78
2022/08/30 07:38:30;;;;;;;4.00;2.00;;;;;;;19.11;85.55;101028.86;1817887;78;26113;-78
2022/08/30 07:41:00;;;;;;;2.40;1.65;;;;;;;19.09;85.24;101028.78;1817927;78;26301;-78
2022/08/30 07:43:28;;;;;;;2.10;1.40;;;;;;;19.09;85.41;101030.14;1813722;78;25765;-78
2022/08/30 07:45:56;;;;;;;3.47;1.62;;;;;;;19.05;84.91;101026.24;1814729;78;28259;-77
2022/08/30 07:48:23;;;;;;;4.37;1.42;;;;;;;19.05;85.24;101032.48;1816327;78;26023;-77
2022/08/30 07:50:49;;;;;;;1.80;1.30;;;;;;;19.07;84.97;101036.34;1809851;78;25786;-78
2022/08/30 07:53:15;;;;;;;1.42;1.20;;;;;;;19.12;85.33;101037.29;1811017;78;25624;-77
2022/08/30 07:55:42;;;;;;;2.00;1.15;;;;;;;19.16;85.06;101038.47;1813341;78;25900;-78
2022/08/30 07:58:08;;;;;;;3.72;1.35;;;;;;;19.22;85.03;101035.38;1803808;78;27437;-78
2022/08/30 08:00:34;;;;;;;3.27;1.15;;;;;;;19.31;84.96;101039.39;1802671;78;25691;-78
2022/08/30 08:03:06;;;;;;;2.05;1.20;;;;;;;19.39;84.65;101044.55;1832682;77;25910;-78
2022/08/30 08:05:42;;;;;;;1.25;1.15;;;;;;;19.44;84.23;101042.48;1816027;77;25717;-78
2022/08/30 08:08:11;;;;;;;1.42;0.90;;;;;;;19.49;84.11;101044.79;1798092;78;25844;-78
2022/08/30 08:10:40;;;;;;;2.02;1.22;;;;;;;19.53;83.48;101039.70;1810757;78;27461;-78
2022/08/30 08:13:06;;;;;;;1.07;0.90;;;;;;;19.58;83.65;101046.11;1818026;77;25738;-77
2022/08/30 08:15:32;;;;;;;2.95;2.65;;;;;;;19.68;83.97;101039.55;1807561;78;25771;-77
2022/08/30 08:18:01;;;;;;;2.60;1.80;;;;;;;19.74;83.59;101041.31;1830633;77;25855;-77
2022/08/30 08:20:27;;;;;;;2.27;1.05;;;;;;;19.85;83.58;101041.02;1810219;78;25885;-77
2022/08/30 08:22:54;;;;;;;2.87;0.98;;;;;;;19.95;83.59;101042.64;1813951;77;28253;-77
2022/08/30 08:25:20;;;;;;;2.83;0.90;;;;;;;19.98;82.50;101047.58;1816571;77;25940;-77
2022/08/30 08:27:49;;;;;;;1.25;0.75;;;;;;;19.91;82.16;101045.50;1802525;78;25809;-77
2022/08/30 08:30:20;;;;;;;1.75;0.95;;;;;;;19.91;82.21;101047.70;1826909;76;26640;-77
2022/08/30 08:32:48;;;;;;;1.65;0.80;;;;;;;19.90;81.85;101050.14;1832303;77;26082;-77
2022/08/30 08:35:16;;;;;;;1.95;0.80;;;;;;;19.93;82.00;101059.16;1822863;77;28120;-77
2022/08/30 08:37:43;;;;;;;2.10;0.60;;;;;;;19.94;81.63;101058.12;1831614;76;26064;-77
2022/08/30 08:40:15;;;;;;;0.88;0.50;;;;;;;19.95;81.38;101052.95;1825184;76;25690;-77
2022/08/30 08:43:01;;;;;;;1.25;0.70;;;;;;;19.94;81.39;101055.92;1800378;78;26250;-77
2022/08/30 08:46:01;;;;;;;0.93;0.55;;;;;;;19.90;81.23;101062.38;1801617;78;26365;-77
2022/08/30 08:48:44;;;;;;;1.87;0.93;;;;;;;19.91;81.14;101068.09;1808901;78;27419;-78
2022/08/30 08:54:12;;;;;;;3.15;0.80;;;;;;;19.89;80.82;101063.42;1797852;78;26640;-77
2022/08/30 08:56:39;;;;;;;1.57;0.80;;;;;;;19.91;80.98;101071.34;1823773;76;26242;-77
2022/08/30 08:59:10;;;;;;;2.10;0.68;;;;;;;19.92;80.81;101067.05;1802575;78;25817;-77
2022/08/30 09:01:37;;;;;;;;;;;;;;;19.91;80.36;101071.34;1808167;78;27459;-77
2022/08/30 09:04:10;;;;;;;1.50;0.60;;;;;;;19.89;80.76;101071.58;1808632;78;54257;-77
2022/08/30 09:07:15;;;;;;;2.27;0.60;;;;;;;19.88;80.43;101071.30;1784185;78;26446;-78
2022/08/30 09:09:42;;;;;;;2.08;0.88;;;;;;;19.83;80.61;101075.77;1786397;79;26276;-77
2022/08/30 09:12:12;;;;;;;1.32;0.60;;;;;;;19.80;80.98;101072.98;1800684;78;26055;-77
2022/08/30 09:14:43;;;;;;;1.45;0.70;;;;;;;19.79;80.46;101073.23;1815594;78;27460;-77
2022/08/30 09:17:14;;;;;;;1.00;0.78;;;;;;;19.75;80.39;101066.09;1813566;78;25706;-78
2022/08/30 09:19:45;;;;;;;;;;;;;;;19.71;80.59;101068.16;1808347;78;25791;-78
2022/08/30 09:22:26;;;;;;;1.87;0.90;;;;;;;19.69;80.44;101067.56;1778659;78;26005;-77
2022/08/30 09:25:01;;;;;;;0.93;0.50;;;;;;;19.69;81.02;101071.11;1808563;78;25810;-78
2022/08/30 09:27:39;;;;;;;1.95;0.70;;;;;;;19.72;80.92;101071.98;1796859;78;27418;-77
2022/08/30 09:30:11;;;;;;;1.47;0.62;;;;;;;19.77;81.17;101078.08;1841798;77;25751;-77
2022/08/30 09:32:42;;;;;;;1.27;1.02;;;;;;;19.82;81.03;101079.02;1831262;77;25939;-78
2022/08/30 09:35:19;;;;;;;2.25;0.60;;;;;;;19.84;80.97;101080.16;1831936;77;25838;-78
2022/08/30 09:38:00;;;;;;;1.95;0.60;;;;;;;19.81;80.08;101076.55;1826647;77;25743;-78
2022/08/30 09:40:35;;;;;;;;;;;;;;;19.82;80.27;101074.94;1795163;78;27475;-77
2022/08/30 09:43:07;;;;;;;1.30;0.62;;;;;;;19.89;80.82;101078.91;1788280;78;26303;-77
2022/08/30 09:45:39;;;;;;;1.42;0.90;;;;;;;19.96;80.78;101076.38;1798043;78;25753;-78
2022/08/30 09:48:30;;;;;;;3.37;0.93;;;;;;;20.06;81.35;101082.56;1798084;78;25735;-77
2022/08/30 09:51:13;;;;;;;1.60;0.60;;;;;;;20.16;81.22;101081.46;1804781;78;25766;-78
2022/08/30 09:54:10;;;;;;;1.45;0.88;;;;;;;20.25;80.82;101078.68;1796342;78;27453;-78
2022/08/30 09:56:49;;;;;;;1.50;0.75;;;;;;;20.32;80.16;101083.47;1805628;78;26071;-78
2022/08/30 09:59:24;;;;;;;3.83;0.68;;;;;;;20.36;80.03;101077.04;1800588;78;26482;-78
2022/08/30 10:01:58;;;;;;;1.85;0.50;;;;;;;20.40;79.81;101081.73;1825373;78;25816;-77
2022/08/30 10:05:02;;;;;;;0.93;0.35;;;;;;;20.39;78.40;101086.91;1808357;78;25741;-78
2022/08/30 10:07:55;;;;;;;2.72;0.55;;;;;;;20.38;78.58;101083.88;1806600;78;28292;-78
2022/08/30 10:10:42;;;;;;;1.40;0.50;;;;;;;20.38;78.19;101089.31;1817969;78;25895;-77
2022/08/30 10:13:37;;;;;;;1.92;0.88;;;;;;;20.36;78.04;101090.09;1811471;78;25828;-77
2022/08/30 10:16:21;;;;;;;0.88;0.45;;;;;;;20.35;78.14;101092.53;1797396;78;25725;-77
2022/08/30 10:19:24;;;;;;;1.47;0.42;;;;;;;20.36;77.89;101091.45;1837420;77;26260;-77
2022/08/30 10:22:14;;;;;;;1.62;0.65;;;;;;;20.36;77.10;101098.81;1818643;77;27459;-78
2022/08/30 10:24:51;;;;;;;1.27;0.55;;;;;;;20.32;77.58;101098.97;1831745;77;26178;-77
2022/08/30 10:27:26;;;;;;;2.40;0.60;;;;;;;20.38;78.23;101096.12;1839684;77;25805;-77
2022/08/30 10:29:58;;;;;;;1.10;0.55;;;;;;;20.44;78.10;101097.91;1841854;77;26241;-77
2022/08/30 10:32:36;;;;;;;1.85;0.50;;;;;;;20.50;77.67;101099.67;1802442;77;25797;-77
2022/08/30 10:35:18;;;;;;;1.67;0.57;;;;;;;20.48;76.90;101099.08;1799760;78;28135;-77
2022/08/30 10:37:55;;;;;;;2.27;0.72;;;;;;;20.49;77.43;101102.61;1799094;78;25680;-77
2022/08/30 10:43:23;;;;;;;1.50;0.60;;;;;;;20.54;77.00;101099.48;1816518;78;26252;-77
2022/08/30 10:45:54;;;;;;;1.37;0.82;;;;;;;20.56;76.84;101101.95;1807100;78;25812;-77
2022/08/30 10:48:32;;;;;;;1.70;0.80;;;;;;;20.69;77.05;101092.99;1811116;78;27520;-77
2022/08/30 10:51:04;;;;;;;2.25;0.72;;;;;;;20.69;77.05;101092.99;1825708;76;25615;-77
2022/08/30 10:53:36;;;;;;;2.95;1.02;;;;;;;20.75;77.01;101100.19;1804210;78;25837;-77
2022/08/30 10:56:10;;;;;;;0.93;0.65;;;;;;;20.83;76.94;101098.17;1781535;77;25825;-78
2022/08/30 10:58:41;;;;;;;2.10;0.98;;;;;;;20.93;76.68;101092.39;1816152;78;25716;-79
2022/08/30 11:01:37;;;;;;;2.65;0.80;;;;;;;21.04;76.33;101091.52;1810343;78;27005;-77
2022/08/30 11:04:18;;;;;;;1.07;0.60;;;;;;;21.10;76.35;101082.40;1815403;78;25820;-76
2022/08/30 11:06:53;;;;;;;1.20;0.60;;;;;;;21.20;76.19;101085.30;1806781;78;26197;-77
2022/08/30 11:09:47;;;;;;;1.17;0.60;;;;;;;21.21;74.98;101073.87;1809310;78;26276;-79
2022/08/30 11:12:39;;;;;;;1.15;0.70;;;;;;;21.27;75.22;101078.34;1803894;78;25798;-78
2022/08/30 11:15:26;;;;;;;0.60;0.40;;;;;;;21.34;74.85;101079.02;1806733;78;28210;-78
2022/08/30 11:18:03;;;;;;;0.85;0.47;;;;;;;21.33;73.17;101074.09;1817655;78;25780;-77
2022/08/30 11:20:41;;;;;;;1.90;0.65;;;;;;;21.30;73.41;101077.83;1820547;78;26345;-77
2022/08/30 11:23:31;;;;;;;2.10;1.37;;;;;;;21.36;73.84;101076.31;1815323;78;26427;-77
2022/08/30 11:26:09;;;;;;;1.42;0.80;;;;;;;21.46;73.15;101082.49;1813412;78;25864;-77
2022/08/30 11:28:47;;;;;;;1.67;0.70;;;;;;;21.55;72.70;101087.84;1839706;76;27451;-78
2022/08/30 11:31:25;;;;;;;1.50;0.55;;;;;;;21.61;72.60;101087.38;1837076;77;25714;-78
2022/08/30 11:33:58;;;;;;;1.12;0.55;;;;;;;21.64;72.01;101086.89;1815559;77;25832;-78
2022/08/30 11:36:37;;;;;;;1.10;1.00;;;;;;;21.63;71.87;101089.31;1810726;78;25869;-76
2022/08/30 11:39:14;;;;;;;5.75;0.98;;;;;;;21.65;71.79;101087.16;1799551;78;25302;-76
2022/08/30 11:41:45;;;;;;;1.05;1.00;;;;;;;21.61;71.33;101090.94;1827376;77;27457;-76
2022/08/30 11:44:28;;;;;;;2.65;1.55;;;;;;;21.57;71.11;101088.41;1815894;78;25743;-76
2022/08/30 11:46:59;;;;;;;1.98;0.70;;;;;;;21.57;70.86;101089.78;1812206;78;25955;-76
2022/08/30 11:49:44;;;;;;;;;;;;;;;21.55;70.97;101088.36;1806340;78;26420;-76